createdAt,value
2016-12-24T00:00:36.057Z,53.3
2016-12-24T00:01:16.709Z,53.01
2016-12-24T00:01:57.344Z,53.01
2016-12-24T00:02:37.978Z,53.01
2016-12-24T00:03:18.598Z,53.49
2016-12-24T00:03:59.232Z,53.39
2016-12-24T00:04:39.877Z,53.2
2016-12-24T00:05:20.506Z,53.2
2016-12-24T00:06:01.137Z,52.81
2016-12-24T00:06:41.768Z,53.11
2016-12-24T00:07:22.432Z,52.91
2016-12-24T00:08:03.068Z,52.81
2016-12-24T00:08:43.707Z,53.11
2016-12-24T00:09:24.335Z,53.3
2016-12-24T00:10:04.982Z,53.39
2016-12-24T00:10:45.624Z,53.39
2016-12-24T00:11:26.252Z,53.11
2016-12-24T00:12:06.897Z,52.91
2016-12-24T00:12:47.531Z,53.11
2016-12-24T00:13:28.216Z,53.01
2016-12-24T00:14:08.849Z,52.81
2016-12-24T00:14:49.481Z,52.79
2016-12-24T00:15:30.107Z,52.91
2016-12-24T00:16:10.735Z,53.11
2016-12-24T00:16:51.358Z,53.11
2016-12-24T00:17:31.993Z,52.91
2016-12-24T00:18:12.629Z,52.91
2016-12-24T00:18:53.262Z,53.01
2016-12-24T00:19:33.888Z,53.2
2016-12-24T00:20:14.523Z,52.91
2016-12-24T00:20:55.261Z,53.39
2016-12-24T00:21:35.926Z,53.27
2016-12-24T00:22:16.563Z,53.2
2016-12-24T00:22:57.195Z,53.3
2016-12-24T00:23:37.833Z,53.46
2016-12-24T00:24:18.487Z,53.3
2016-12-24T00:24:59.116Z,53.39
2016-12-24T00:25:39.763Z,53.08
2016-12-24T00:26:20.392Z,53.2
2016-12-24T00:27:01.018Z,53.27
2016-12-24T00:27:41.656Z,53.08
2016-12-24T00:28:22.291Z,53.36
2016-12-24T00:29:02.954Z,53.3
2016-12-24T00:29:43.587Z,53.17
2016-12-24T00:30:24.225Z,53.39
2016-12-24T00:31:04.869Z,53.3
2016-12-24T00:31:45.512Z,53.27
2016-12-24T00:32:26.160Z,53.39
2016-12-24T00:33:06.819Z,53.11
2016-12-24T00:33:47.472Z,53.17
2016-12-24T00:34:28.131Z,53.17
2016-12-24T00:35:08.728Z,53.08
2016-12-24T00:35:49.387Z,53.36
2016-12-24T00:36:30.026Z,53.46
2016-12-24T00:37:10.659Z,53.2
2016-12-24T00:37:51.294Z,53.27
2016-12-24T00:38:31.945Z,53.11
2016-12-24T00:39:12.574Z,53.11
2016-12-24T00:39:53.213Z,53.56
2016-12-24T00:40:33.841Z,53.08
2016-12-24T00:41:14.473Z,53.2
2016-12-24T00:41:55.171Z,53.56
2016-12-24T00:42:35.971Z,53.56
2016-12-24T00:43:16.619Z,53.46
2016-12-24T00:43:57.252Z,53.17
2016-12-24T00:44:37.895Z,53.36
2016-12-24T00:45:18.527Z,53.3
2016-12-24T00:45:59.174Z,53.56
2016-12-24T00:46:39.887Z,53.46
2016-12-24T00:47:20.523Z,53.08
2016-12-24T00:48:01.148Z,53.36
2016-12-24T00:48:41.782Z,53.36
2016-12-24T00:49:22.423Z,53.27
2016-12-24T00:50:03.058Z,53.27
2016-12-24T00:50:43.688Z,53.27
2016-12-24T00:51:24.317Z,53.27
2016-12-24T00:52:05.911Z,53.17
2016-12-24T00:52:46.584Z,53.27
2016-12-24T00:53:27.216Z,53.46
2016-12-24T00:54:07.896Z,53.17
2016-12-24T00:54:48.532Z,53.56
2016-12-24T00:55:29.160Z,53.36
2016-12-24T00:56:09.893Z,53.46
2016-12-24T00:56:50.593Z,53.27
2016-12-24T00:57:31.227Z,53.08
2016-12-24T00:58:11.853Z,53.66
2016-12-24T00:58:52.498Z,53.75
2016-12-24T00:59:33.150Z,53.75
2016-12-24T01:00:13.800Z,53.36
2016-12-24T01:00:54.448Z,53.36
2016-12-24T01:01:35.132Z,53.56
2016-12-24T01:02:15.754Z,53.46
2016-12-24T01:02:56.376Z,53.49
2016-12-24T01:03:37.060Z,53.56
2016-12-24T01:04:17.686Z,53.75
2016-12-24T01:04:58.307Z,53.56
2016-12-24T01:05:38.991Z,53.75
2016-12-24T01:06:19.632Z,53.78
2016-12-24T01:07:00.265Z,53.56
2016-12-24T01:07:41.013Z,53.66
2016-12-24T01:08:21.647Z,53.75
2016-12-24T01:09:02.371Z,53.66
2016-12-24T01:09:43.008Z,53.56
2016-12-24T01:10:23.694Z,53.66
2016-12-24T01:11:04.269Z,53.66
2016-12-24T01:11:44.899Z,53.75
2016-12-24T01:12:25.532Z,53.85
2016-12-24T01:13:06.158Z,53.66
2016-12-24T01:13:46.775Z,53.66
2016-12-24T01:14:27.422Z,53.75
2016-12-24T01:15:08.055Z,53.66
2016-12-24T01:15:48.709Z,53.66
2016-12-24T01:16:29.335Z,53.66
2016-12-24T01:17:09.965Z,53.75
2016-12-24T01:17:50.588Z,53.66
2016-12-24T01:18:31.229Z,53.66
2016-12-24T01:19:11.867Z,53.75
2016-12-24T01:19:52.514Z,53.66
2016-12-24T01:20:33.139Z,53.75
2016-12-24T01:21:13.802Z,53.75
2016-12-24T01:21:54.470Z,53.46
2016-12-24T01:22:35.100Z,53.75
2016-12-24T01:23:15.731Z,53.46
2016-12-24T01:23:56.363Z,53.75
2016-12-24T01:24:36.995Z,53.56
2016-12-24T01:25:17.704Z,53.66
2016-12-24T01:25:58.341Z,53.85
2016-12-24T01:26:38.969Z,53.94
2016-12-24T01:27:19.598Z,53.66
2016-12-24T01:28:00.224Z,53.85
2016-12-24T01:28:40.852Z,53.94
2016-12-24T01:29:21.480Z,53.56
2016-12-24T01:30:02.262Z,53.56
2016-12-24T01:30:42.886Z,53.75
2016-12-24T01:31:23.525Z,53.75
2016-12-24T01:32:04.153Z,53.85
2016-12-24T01:32:44.846Z,53.27
2016-12-24T01:33:25.486Z,53.75
2016-12-24T01:34:06.201Z,53.75
2016-12-24T01:34:46.836Z,53.94
2016-12-24T01:35:27.465Z,53.56
2016-12-24T01:36:08.095Z,53.75
2016-12-24T01:36:48.725Z,53.75
2016-12-24T01:37:29.343Z,53.56
2016-12-24T01:38:09.968Z,53.66
2016-12-24T01:38:50.597Z,53.36
2016-12-24T01:39:31.219Z,53.75
2016-12-24T01:40:11.847Z,53.36
2016-12-24T01:40:52.476Z,53.66
2016-12-24T01:41:33.119Z,53.66
2016-12-24T01:42:13.770Z,53.56
2016-12-24T01:42:54.408Z,53.75
2016-12-24T01:43:35.033Z,53.75
2016-12-24T01:44:15.694Z,53.56
2016-12-24T01:44:56.333Z,53.56
2016-12-24T01:45:36.966Z,53.56
2016-12-24T01:46:17.588Z,53.66
2016-12-24T01:46:58.241Z,53.94
2016-12-24T01:47:38.882Z,53.94
2016-12-24T01:48:19.537Z,53.94
2016-12-24T01:49:00.166Z,53.85
2016-12-24T01:49:40.794Z,53.85
2016-12-24T01:50:21.429Z,53.56
2016-12-24T01:51:02.077Z,53.94
2016-12-24T01:51:42.740Z,53.94
2016-12-24T01:52:23.364Z,53.94
2016-12-24T01:53:03.996Z,53.94
2016-12-24T01:53:44.649Z,53.94
2016-12-24T01:54:25.319Z,53.75
2016-12-24T01:55:05.990Z,53.85
2016-12-24T01:55:46.619Z,53.85
2016-12-24T01:56:28.236Z,53.94
2016-12-24T01:57:08.908Z,53.75
2016-12-24T01:57:49.549Z,53.94
2016-12-24T01:58:30.243Z,54.04
2016-12-24T01:59:10.927Z,54.04
2016-12-24T01:59:51.557Z,54.13
2016-12-24T02:00:32.197Z,54.13
2016-12-24T02:01:12.916Z,53.94
2016-12-24T02:01:53.547Z,54.04
2016-12-24T02:02:34.172Z,53.94
2016-12-24T02:03:14.812Z,53.66
2016-12-24T02:03:55.444Z,53.94
2016-12-24T02:04:36.070Z,53.94
2016-12-24T02:05:16.740Z,53.66
2016-12-24T02:05:57.375Z,53.94
2016-12-24T02:06:37.999Z,54.04
2016-12-24T02:07:18.747Z,53.94
2016-12-24T02:07:59.437Z,53.85
2016-12-24T02:08:40.078Z,53.94
2016-12-24T02:09:20.761Z,53.94
2016-12-24T02:10:01.443Z,54.13
2016-12-24T02:10:42.067Z,54.04
2016-12-24T02:11:22.694Z,54.04
2016-12-24T02:12:03.411Z,53.94
2016-12-24T02:12:44.045Z,54.04
2016-12-24T02:13:24.666Z,54.13
2016-12-24T02:14:05.308Z,54.04
2016-12-24T02:14:45.934Z,54.23
2016-12-24T02:15:26.601Z,54.13
2016-12-24T02:16:07.218Z,54.13
2016-12-24T02:16:47.855Z,54.04
2016-12-24T02:17:28.483Z,54.13
2016-12-24T02:18:09.118Z,54.13
2016-12-24T02:18:49.747Z,54.13
2016-12-24T02:19:30.376Z,53.66
2016-12-24T02:20:11.047Z,54.33
2016-12-24T02:20:51.690Z,54.23
2016-12-24T02:21:32.332Z,54.33
2016-12-24T02:22:13.003Z,54.33
2016-12-24T02:22:53.647Z,54.23
2016-12-24T02:23:34.288Z,54.42
2016-12-24T02:24:14.944Z,54.13
2016-12-24T02:24:55.565Z,54.33
2016-12-24T02:25:36.280Z,54.13
2016-12-24T02:26:16.909Z,54.23
2016-12-24T02:26:57.556Z,54.42
2016-12-24T02:27:38.199Z,54.33
2016-12-24T02:28:18.824Z,54.23
2016-12-24T02:28:59.465Z,54.33
2016-12-24T02:29:40.108Z,54.33
2016-12-24T02:30:20.739Z,54.23
2016-12-24T02:31:01.374Z,54.33
2016-12-24T02:31:42.001Z,54.23
2016-12-24T02:32:22.682Z,54.42
2016-12-24T02:33:03.305Z,54.61
2016-12-24T02:33:43.950Z,54.52
2016-12-24T02:34:24.699Z,54.33
2016-12-24T02:35:05.407Z,54.42
2016-12-24T02:35:46.030Z,54.52
2016-12-24T02:36:26.663Z,54.52
2016-12-24T02:37:07.326Z,54.52
2016-12-24T02:37:47.953Z,54.33
2016-12-24T02:38:28.590Z,54.23
2016-12-24T02:39:09.217Z,54.52
2016-12-24T02:39:49.860Z,54.61
2016-12-24T02:40:30.522Z,54.33
2016-12-24T02:41:11.144Z,54.23
2016-12-24T02:41:51.767Z,54.42
2016-12-24T02:42:32.442Z,54.42
2016-12-24T02:43:13.092Z,54.61
2016-12-24T02:43:53.718Z,54.42
2016-12-24T02:44:34.340Z,54.33
2016-12-24T02:45:14.965Z,54.42
2016-12-24T02:45:55.590Z,54.42
2016-12-24T02:46:36.226Z,54.8
2016-12-24T02:47:16.875Z,54.61
2016-12-24T02:47:57.537Z,54.61
2016-12-24T02:48:38.162Z,54.13
2016-12-24T02:49:18.844Z,54.52
2016-12-24T02:49:59.478Z,54.8
2016-12-24T02:50:40.163Z,54.52
2016-12-24T02:51:20.836Z,54.52
2016-12-24T02:52:01.478Z,54.8
2016-12-24T02:52:42.116Z,54.8
2016-12-24T02:53:22.767Z,54.52
2016-12-24T02:54:03.392Z,54.71
2016-12-24T02:54:44.017Z,54.8
2016-12-24T02:55:24.744Z,54.9
2016-12-24T02:56:05.389Z,54.71
2016-12-24T02:56:46.038Z,54.71
2016-12-24T02:57:26.671Z,54.71
2016-12-24T02:58:07.328Z,54.8
2016-12-24T02:58:47.953Z,54.61
2016-12-24T02:59:28.591Z,54.61
2016-12-24T03:00:09.222Z,54.52
2016-12-24T03:00:49.852Z,54.8
2016-12-24T03:01:30.509Z,54.71
2016-12-24T03:02:11.132Z,54.61
2016-12-24T03:02:51.765Z,54.52
2016-12-24T03:03:32.433Z,54.71
2016-12-24T03:04:13.059Z,54.8
2016-12-24T03:04:53.680Z,55
2016-12-24T03:05:34.436Z,55.38
2016-12-24T03:06:15.064Z,54.71
2016-12-24T03:06:55.690Z,55.19
2016-12-24T03:07:36.323Z,55.29
2016-12-24T03:08:17.024Z,54.71
2016-12-24T03:08:57.667Z,54.8
2016-12-24T03:09:38.300Z,54.8
2016-12-24T03:10:18.926Z,54.8
2016-12-24T03:10:59.555Z,54.61
2016-12-24T03:11:40.198Z,54.71
2016-12-24T03:12:20.826Z,54.8
2016-12-24T03:13:01.452Z,54.8
2016-12-24T03:13:42.174Z,54.71
2016-12-24T03:14:22.807Z,54.9
2016-12-24T03:15:03.440Z,54.8
2016-12-24T03:15:44.126Z,54.71
2016-12-24T03:16:24.838Z,54.8
2016-12-24T03:17:05.469Z,54.71
2016-12-24T03:17:46.121Z,55
2016-12-24T03:18:26.755Z,55
2016-12-24T03:19:07.380Z,54.9
2016-12-24T03:19:48.006Z,55.19
2016-12-24T03:20:28.637Z,55.19
2016-12-24T03:21:09.257Z,54.9
2016-12-24T03:21:49.907Z,55.1
2016-12-24T03:22:30.592Z,55.1
2016-12-24T03:23:11.230Z,55.19
2016-12-24T03:23:51.934Z,55.1
2016-12-24T03:24:32.582Z,55.19
2016-12-24T03:25:13.216Z,55.1
2016-12-24T03:25:53.901Z,55.1
2016-12-24T03:26:34.527Z,55.38
2016-12-24T03:27:15.192Z,55.1
2016-12-24T03:27:55.787Z,55.1
2016-12-24T03:28:36.533Z,55
2016-12-24T03:29:17.265Z,54.61
2016-12-24T03:29:57.893Z,54.8
2016-12-24T03:30:38.526Z,55.19
2016-12-24T03:31:19.158Z,54.71
2016-12-24T03:31:59.783Z,55.19
2016-12-24T03:32:40.419Z,55.1
2016-12-24T03:33:21.057Z,55.19
2016-12-24T03:34:01.687Z,55.1
2016-12-24T03:34:42.382Z,55.1
2016-12-24T03:35:23.017Z,55.19
2016-12-24T03:36:03.644Z,55.19
2016-12-24T03:36:44.344Z,55.19
2016-12-24T03:37:25.061Z,54.71
2016-12-24T03:38:05.706Z,54.8
2016-12-24T03:38:46.382Z,55.19
2016-12-24T03:39:27.016Z,55.1
2016-12-24T03:40:07.657Z,55.1
2016-12-24T03:40:48.286Z,54.9
2016-12-24T03:41:29.664Z,55.19
2016-12-24T03:42:10.290Z,54.9
2016-12-24T03:42:50.926Z,55.19
2016-12-24T03:43:31.553Z,55.1
2016-12-24T03:44:12.181Z,54.8
2016-12-24T03:44:52.814Z,54.8
2016-12-24T03:45:33.526Z,54.8
2016-12-24T03:46:14.061Z,54.9
2016-12-24T03:46:54.785Z,55.1
2016-12-24T03:47:35.416Z,55.1
2016-12-24T03:48:16.050Z,54.8
2016-12-24T03:48:56.707Z,54.9
2016-12-24T03:49:37.345Z,55.1
2016-12-24T03:50:17.991Z,55.1
2016-12-24T03:50:58.718Z,55.1
2016-12-24T03:51:39.426Z,55.19
2016-12-24T03:52:20.048Z,54.9
2016-12-24T03:53:00.681Z,54.8
2016-12-24T03:53:41.358Z,54.8
2016-12-24T03:54:21.991Z,55.1
2016-12-24T03:55:03.451Z,55.1
2016-12-24T03:55:44.077Z,55
2016-12-24T03:56:24.701Z,54.9
2016-12-24T03:57:05.333Z,55
2016-12-24T03:57:46.017Z,55
2016-12-24T03:58:26.673Z,54.9
2016-12-24T03:59:07.298Z,55
2016-12-24T03:59:47.923Z,54.9
2016-12-24T04:00:28.557Z,54.8
2016-12-24T04:01:09.191Z,55.19
2016-12-24T04:01:49.823Z,55.19
2016-12-24T04:02:30.452Z,55.1
2016-12-24T04:03:11.086Z,54.8
2016-12-24T04:03:51.709Z,54.9
2016-12-24T04:04:32.337Z,55.1
2016-12-24T04:05:13.036Z,55.1
2016-12-24T04:05:53.676Z,55
2016-12-24T04:06:34.320Z,55
2016-12-24T04:07:14.961Z,55.1
2016-12-24T04:07:55.689Z,54.8
2016-12-24T04:08:36.329Z,54.8
2016-12-24T04:09:16.990Z,54.9
2016-12-24T04:09:57.744Z,54.8
2016-12-24T04:10:38.374Z,54.9
2016-12-24T04:11:19.021Z,54.9
2016-12-24T04:11:59.647Z,55.1
2016-12-24T04:12:40.274Z,54.9
2016-12-24T04:13:20.954Z,55
2016-12-24T04:14:01.582Z,55
2016-12-24T04:14:42.210Z,54.8
2016-12-24T04:15:22.876Z,54.9
2016-12-24T04:16:03.614Z,54.8
2016-12-24T04:16:44.265Z,55.19
2016-12-24T04:17:24.899Z,54.9
2016-12-24T04:18:05.622Z,55.1
2016-12-24T04:18:46.308Z,54.97
2016-12-24T04:19:26.943Z,54.9
2016-12-24T04:20:07.652Z,55
2016-12-24T04:20:48.283Z,54.9
2016-12-24T04:21:28.917Z,55
2016-12-24T04:22:09.549Z,54.9
2016-12-24T04:22:50.254Z,55.19
2016-12-24T04:23:30.885Z,55.19
2016-12-24T04:24:11.535Z,54.9
2016-12-24T04:24:52.162Z,55
2016-12-24T04:25:32.792Z,54.88
2016-12-24T04:26:13.431Z,55
2016-12-24T04:26:54.064Z,55.07
2016-12-24T04:27:34.695Z,55
2016-12-24T04:28:15.357Z,54.88
2016-12-24T04:28:55.992Z,54.9
2016-12-24T04:29:36.652Z,55.19
2016-12-24T04:30:17.282Z,55
2016-12-24T04:30:57.915Z,55
2016-12-24T04:31:38.568Z,54.9
2016-12-24T04:32:19.205Z,55.1
2016-12-24T04:32:59.887Z,55.1
2016-12-24T04:33:40.575Z,54.8
2016-12-24T04:34:21.142Z,55.16
2016-12-24T04:35:01.827Z,54.88
2016-12-24T04:35:42.499Z,55.1
2016-12-24T04:36:23.181Z,54.9
2016-12-24T04:37:03.875Z,55.07
2016-12-24T04:37:44.582Z,54.97
2016-12-24T04:38:25.210Z,55
2016-12-24T04:39:05.842Z,55.19
2016-12-24T04:39:47.062Z,54.97
2016-12-24T04:40:27.784Z,55.57
2016-12-24T04:41:08.446Z,55.29
2016-12-24T04:41:49.071Z,55.29
2016-12-24T04:42:29.760Z,55.19
2016-12-24T04:43:10.385Z,55.07
2016-12-24T04:43:51.013Z,55.67
2016-12-24T04:44:31.718Z,55.57
2016-12-24T04:45:12.345Z,54.97
2016-12-24T04:45:52.976Z,55
2016-12-24T04:46:33.643Z,54.9
2016-12-24T04:47:14.267Z,55
2016-12-24T04:47:54.885Z,54.97
2016-12-24T04:48:35.583Z,54.97
2016-12-24T04:49:17.186Z,54.88
2016-12-24T04:49:57.815Z,55.16
2016-12-24T04:50:38.438Z,55.16
2016-12-24T04:51:19.061Z,54.88
2016-12-24T04:51:59.689Z,55.26
2016-12-24T04:52:40.323Z,55.07
2016-12-24T04:53:20.953Z,54.97
2016-12-24T04:54:01.593Z,55
2016-12-24T04:54:42.312Z,55.19
2016-12-24T04:55:22.973Z,55.16
2016-12-24T04:56:03.678Z,55.07
2016-12-24T04:56:44.232Z,55.29
2016-12-24T04:57:24.856Z,55.1
2016-12-24T04:58:05.476Z,55.29
2016-12-24T04:58:46.097Z,55.67
2016-12-24T04:59:26.727Z,55.16
2016-12-24T05:00:07.361Z,54.9
2016-12-24T05:00:48.041Z,55.29
2016-12-24T05:01:28.713Z,54.9
2016-12-24T05:02:09.339Z,55.16
2016-12-24T05:02:49.964Z,54.97
2016-12-24T05:03:30.688Z,55.55
2016-12-24T05:04:11.359Z,54.88
2016-12-24T05:04:52.012Z,55.64
2016-12-24T05:05:32.731Z,55.16
2016-12-24T05:06:13.444Z,55.29
2016-12-24T05:06:54.073Z,55.67
2016-12-24T05:07:34.737Z,55.38
2016-12-24T05:08:15.432Z,55.67
2016-12-24T05:08:56.054Z,55.47
2016-12-24T05:09:36.702Z,55.29
2016-12-24T05:10:17.428Z,55.64
2016-12-24T05:10:58.054Z,55.38
2016-12-24T05:11:38.686Z,55.45
2016-12-24T05:12:19.325Z,55.35
2016-12-24T05:12:59.969Z,55.38
2016-12-24T05:13:40.734Z,55.55
2016-12-24T05:14:21.389Z,55.35
2016-12-24T05:15:02.032Z,55.57
2016-12-24T05:15:42.657Z,55.55
2016-12-24T05:16:23.296Z,55.67
2016-12-24T05:17:03.905Z,55.77
2016-12-24T05:17:44.538Z,55.64
2016-12-24T05:18:25.164Z,54.9
2016-12-24T05:19:05.865Z,55.55
2016-12-24T05:19:46.499Z,55.47
2016-12-24T05:20:27.203Z,55.67
2016-12-24T05:21:07.871Z,55.29
2016-12-24T05:21:48.498Z,55.67
2016-12-24T05:22:29.218Z,55.64
2016-12-24T05:23:09.848Z,55.57
2016-12-24T05:23:50.479Z,55.55
2016-12-24T05:24:31.105Z,55.77
2016-12-24T05:25:11.742Z,54.9
2016-12-24T05:25:52.379Z,55.19
2016-12-24T05:26:33.078Z,54.88
2016-12-24T05:27:13.708Z,55.19
2016-12-24T05:27:54.338Z,55.16
2016-12-24T05:28:34.991Z,55.57
2016-12-24T05:29:15.636Z,55.64
2016-12-24T05:29:56.267Z,55.29
2016-12-24T05:30:36.900Z,55.55
2016-12-24T05:31:17.573Z,55.67
2016-12-24T05:31:58.308Z,54.97
2016-12-24T05:32:38.968Z,54.9
2016-12-24T05:33:19.602Z,55.07
2016-12-24T05:34:00.225Z,55
2016-12-24T05:34:40.933Z,55.57
2016-12-24T05:35:21.572Z,55.64
2016-12-24T05:36:02.235Z,55.55
2016-12-24T05:36:42.878Z,55.55
2016-12-24T05:37:23.506Z,55.47
2016-12-24T05:38:04.154Z,55.45
2016-12-24T05:38:44.787Z,55.64
2016-12-24T05:39:25.439Z,55.55
2016-12-24T05:40:06.078Z,55.19
2016-12-24T05:40:46.713Z,55.26
2016-12-24T05:41:27.334Z,55.45
2016-12-24T05:42:07.961Z,55.55
2016-12-24T05:42:48.590Z,55.55
2016-12-24T05:43:29.221Z,55.55
2016-12-24T05:44:09.848Z,55.35
2016-12-24T05:44:50.474Z,55.26
2016-12-24T05:45:31.100Z,55.55
2016-12-24T05:46:11.732Z,55.55
2016-12-24T05:46:52.371Z,55.16
2016-12-24T05:47:33.075Z,55.55
2016-12-24T05:48:13.736Z,55.55
2016-12-24T05:48:54.369Z,55.26
2016-12-24T05:49:35.019Z,55.45
2016-12-24T05:50:15.704Z,55.35
2016-12-24T05:50:56.342Z,55.26
2016-12-24T05:51:36.973Z,55.35
2016-12-24T05:52:17.626Z,55.45
2016-12-24T05:52:58.249Z,55.35
2016-12-24T05:53:38.879Z,55.35
2016-12-24T05:54:19.552Z,55.35
2016-12-24T05:55:00.183Z,55.45
2016-12-24T05:55:40.805Z,55.35
2016-12-24T05:56:21.483Z,55.26
2016-12-24T05:57:02.125Z,55.45
2016-12-24T05:57:42.747Z,55.64
2016-12-24T05:58:23.404Z,55.45
2016-12-24T05:59:04.030Z,55.16
2016-12-24T05:59:44.658Z,55.16
2016-12-24T06:00:25.285Z,55.55
2016-12-24T06:01:05.915Z,55.35
2016-12-24T06:01:46.568Z,55.55
2016-12-24T06:02:27.191Z,55.55
2016-12-24T06:03:07.815Z,55.64
2016-12-24T06:03:48.565Z,55.64
2016-12-24T06:04:29.203Z,55.64
2016-12-24T06:05:09.830Z,55.26
2016-12-24T06:05:50.452Z,55.74
2016-12-24T06:06:31.096Z,55.45
2016-12-24T06:07:11.726Z,55.45
2016-12-24T06:07:52.360Z,55.35
2016-12-24T06:08:32.994Z,55.35
2016-12-24T06:09:13.617Z,55.26
2016-12-24T06:09:54.342Z,55.35
2016-12-24T06:10:34.969Z,55.64
2016-12-24T06:11:15.606Z,55.55
2016-12-24T06:11:56.231Z,55.35
2016-12-24T06:12:36.865Z,55.74
2016-12-24T06:13:17.512Z,55.16
2016-12-24T06:13:58.137Z,55.55
2016-12-24T06:14:38.765Z,55.26
2016-12-24T06:15:19.392Z,55.26
2016-12-24T06:16:00.020Z,55.26
2016-12-24T06:16:40.710Z,55.64
2016-12-24T06:17:21.345Z,55.16
2016-12-24T06:18:01.968Z,55.45
2016-12-24T06:18:42.598Z,55.26
2016-12-24T06:19:23.226Z,55.55
2016-12-24T06:20:03.853Z,55.45
2016-12-24T06:20:44.548Z,55.55
2016-12-24T06:21:25.254Z,55.55
2016-12-24T06:22:05.802Z,55.55
2016-12-24T06:22:46.518Z,55.16
2016-12-24T06:23:27.152Z,55.16
2016-12-24T06:24:07.758Z,55.16
2016-12-24T06:24:48.436Z,55.26
2016-12-24T06:25:29.061Z,55.64
2016-12-24T06:26:09.707Z,55.45
2016-12-24T06:26:50.358Z,55.45
2016-12-24T06:27:31.065Z,55.26
2016-12-24T06:28:11.730Z,55.55
2016-12-24T06:28:52.387Z,55.55
2016-12-24T06:29:33.108Z,54.88
2016-12-24T06:30:13.738Z,54.88
2016-12-24T06:30:54.365Z,55.16
2016-12-24T06:31:34.998Z,55.26
2016-12-24T06:32:15.628Z,55.55
2016-12-24T06:32:56.299Z,55.55
2016-12-24T06:33:36.927Z,55.35
2016-12-24T06:34:17.555Z,55.55
2016-12-24T06:34:58.229Z,55.35
2016-12-24T06:35:38.856Z,55.45
2016-12-24T06:36:19.476Z,55.35
2016-12-24T06:37:00.161Z,55.55
2016-12-24T06:37:40.792Z,55.45
2016-12-24T06:38:21.415Z,55.35
2016-12-24T06:39:02.122Z,55.16
2016-12-24T06:39:42.842Z,55.35
2016-12-24T06:40:23.504Z,55.35
2016-12-24T06:41:04.129Z,55.45
2016-12-24T06:41:44.770Z,55.26
2016-12-24T06:42:25.420Z,55.45
2016-12-24T06:43:06.144Z,55.16
2016-12-24T06:43:46.819Z,55.64
2016-12-24T06:44:27.452Z,55.16
2016-12-24T06:45:08.080Z,55.74
2016-12-24T06:45:48.767Z,55.64
2016-12-24T06:46:29.436Z,55.64
2016-12-24T06:47:10.078Z,55.45
2016-12-24T06:47:50.775Z,55.35
2016-12-24T06:48:31.403Z,55.35
2016-12-24T06:49:12.035Z,55.45
2016-12-24T06:49:52.665Z,55.45
2016-12-24T06:50:33.313Z,55.35
2016-12-24T06:51:13.930Z,55.55
2016-12-24T06:51:54.646Z,55.35
2016-12-24T06:52:35.282Z,55.45
2016-12-24T06:53:15.919Z,55.45
2016-12-24T06:53:56.552Z,55.55
2016-12-24T06:54:37.286Z,55.45
2016-12-24T06:55:17.983Z,55.55
2016-12-24T06:55:58.609Z,55.35
2016-12-24T06:56:39.250Z,55.35
2016-12-24T06:57:19.886Z,55.55
2016-12-24T06:58:00.507Z,55.45
2016-12-24T06:58:41.141Z,55.45
2016-12-24T06:59:21.773Z,55.55
2016-12-24T07:00:02.407Z,55.55
2016-12-24T07:00:43.037Z,55.35
2016-12-24T07:01:23.661Z,55.55
2016-12-24T07:02:04.283Z,55.45
2016-12-24T07:02:44.903Z,55.55
2016-12-24T07:03:25.624Z,55.35
2016-12-24T07:04:06.260Z,55.16
2016-12-24T07:04:46.910Z,55.26
2016-12-24T07:05:27.537Z,55.35
2016-12-24T07:06:08.169Z,55.35
2016-12-24T07:06:48.836Z,55.35
2016-12-24T07:07:29.461Z,55.45
2016-12-24T07:08:10.090Z,55.26
2016-12-24T07:08:50.823Z,55.16
2016-12-24T07:09:31.453Z,55.45
2016-12-24T07:10:12.092Z,55.26
2016-12-24T07:10:52.791Z,55.16
2016-12-24T07:11:33.418Z,55.16
2016-12-24T07:12:14.048Z,55.16
2016-12-24T07:12:54.710Z,55.35
2016-12-24T07:13:35.331Z,55.55
2016-12-24T07:14:15.962Z,55.26
2016-12-24T07:14:56.590Z,55.55
2016-12-24T07:15:37.228Z,55.35
2016-12-24T07:16:17.852Z,55.55
2016-12-24T07:16:58.521Z,55.35
2016-12-24T07:17:39.152Z,55.55
2016-12-24T07:18:19.783Z,55.16
2016-12-24T07:19:00.417Z,55.35
2016-12-24T07:19:41.043Z,55.26
2016-12-24T07:20:21.687Z,55.64
2016-12-24T07:21:02.335Z,55.16
2016-12-24T07:21:43.015Z,55.16
2016-12-24T07:22:23.645Z,55.26
2016-12-24T07:23:04.283Z,55.55
2016-12-24T07:23:44.969Z,55.16
2016-12-24T07:24:25.593Z,55.55
2016-12-24T07:25:06.220Z,55.55
2016-12-24T07:25:46.859Z,55.45
2016-12-24T07:26:27.494Z,55.16
2016-12-24T07:27:08.121Z,54.97
2016-12-24T07:27:48.743Z,55.16
2016-12-24T07:28:29.374Z,55.64
2016-12-24T07:29:10.004Z,55.16
2016-12-24T07:29:50.627Z,55.45
2016-12-24T07:30:31.267Z,55.74
2016-12-24T07:31:11.899Z,55.35
2016-12-24T07:31:52.559Z,55.26
2016-12-24T07:32:33.199Z,55.45
2016-12-24T07:33:13.823Z,55.16
2016-12-24T07:33:54.570Z,55.26
2016-12-24T07:34:35.228Z,55.35
2016-12-24T07:35:15.855Z,55.55
2016-12-24T07:35:56.481Z,55.45
2016-12-24T07:36:37.108Z,55.35
2016-12-24T07:37:17.737Z,55.55
2016-12-24T07:37:58.365Z,55.26
2016-12-24T07:38:38.992Z,55.55
2016-12-24T07:39:19.618Z,55.26
2016-12-24T07:40:00.299Z,55.64
2016-12-24T07:40:40.916Z,55.35
2016-12-24T07:41:21.649Z,55.35
2016-12-24T07:42:02.278Z,55.64
2016-12-24T07:42:42.920Z,55.16
2016-12-24T07:43:23.551Z,55.16
2016-12-24T07:44:04.177Z,55.55
2016-12-24T07:44:44.817Z,54.88
2016-12-24T07:45:25.446Z,55.16
2016-12-24T07:46:06.221Z,55.64
2016-12-24T07:46:46.919Z,55.55
2016-12-24T07:47:27.552Z,55.35
2016-12-24T07:48:08.178Z,55.16
2016-12-24T07:48:48.806Z,55.55
2016-12-24T07:49:29.443Z,55.64
2016-12-24T07:50:10.069Z,55.55
2016-12-24T07:50:50.698Z,55.26
2016-12-24T07:51:31.327Z,55.26
2016-12-24T07:52:12.079Z,55.16
2016-12-24T07:52:52.712Z,55.07
2016-12-24T07:53:33.342Z,54.97
2016-12-24T07:54:13.967Z,54.97
2016-12-24T07:54:54.687Z,55.55
2016-12-24T07:55:35.328Z,54.88
2016-12-24T07:56:15.952Z,55.16
2016-12-24T07:56:56.662Z,55.16
2016-12-24T07:57:37.286Z,54.97
2016-12-24T07:58:17.915Z,55.64
2016-12-24T07:58:58.542Z,55.64
2016-12-24T07:59:39.179Z,55.16
2016-12-24T08:00:19.894Z,55.45
2016-12-24T08:01:00.530Z,55.55
2016-12-24T08:01:41.161Z,55.26
2016-12-24T08:02:21.791Z,55.26
2016-12-24T08:03:02.418Z,55.45
2016-12-24T08:03:43.059Z,55.55
2016-12-24T08:04:23.752Z,55.16
2016-12-24T08:05:04.385Z,55.55
2016-12-24T08:05:45.009Z,55.16
2016-12-24T08:06:25.645Z,54.88
2016-12-24T08:07:06.323Z,54.97
2016-12-24T08:07:46.957Z,55.07
2016-12-24T08:08:27.598Z,55.16
2016-12-24T08:09:08.231Z,54.78
2016-12-24T08:09:48.868Z,55.07
2016-12-24T08:10:29.495Z,55.16
2016-12-24T08:11:10.133Z,54.88
2016-12-24T08:11:50.798Z,55.26
2016-12-24T08:12:31.396Z,55.07
2016-12-24T08:13:12.025Z,55.64
2016-12-24T08:13:52.662Z,54.97
2016-12-24T08:14:33.299Z,55.45
2016-12-24T08:15:13.933Z,55.26
2016-12-24T08:15:54.564Z,54.88
2016-12-24T08:16:35.198Z,54.97
2016-12-24T08:17:15.864Z,54.97
2016-12-24T08:17:56.481Z,54.97
2016-12-24T08:18:37.103Z,54.97
2016-12-24T08:19:17.731Z,54.97
2016-12-24T08:19:58.372Z,54.88
2016-12-24T08:20:39.025Z,55.16
2016-12-24T08:21:19.669Z,54.88
2016-12-24T08:22:00.293Z,54.97
2016-12-24T08:22:40.917Z,54.97
2016-12-24T08:23:21.602Z,54.88
2016-12-24T08:24:02.229Z,54.97
2016-12-24T08:24:42.858Z,54.88
2016-12-24T08:25:23.489Z,55.07
2016-12-24T08:26:04.118Z,54.97
2016-12-24T08:26:44.802Z,54.97
2016-12-24T08:27:25.430Z,54.97
2016-12-24T08:28:06.143Z,54.97
2016-12-24T08:28:46.773Z,54.97
2016-12-24T08:29:27.460Z,55.07
2016-12-24T08:30:08.133Z,54.88
2016-12-24T08:30:48.780Z,54.88
2016-12-24T08:31:29.463Z,54.88
2016-12-24T08:32:10.088Z,54.97
2016-12-24T08:32:50.732Z,55.16
2016-12-24T08:33:31.413Z,54.88
2016-12-24T08:34:12.066Z,55.26
2016-12-24T08:34:52.692Z,54.88
2016-12-24T08:35:33.354Z,54.88
2016-12-24T08:36:14.020Z,55.16
2016-12-24T08:36:54.674Z,54.88
2016-12-24T08:37:35.394Z,54.97
2016-12-24T08:38:16.124Z,54.78
2016-12-24T08:38:56.815Z,55.07
2016-12-24T08:39:37.461Z,54.78
2016-12-24T08:40:18.110Z,55.07
2016-12-24T08:40:58.750Z,54.78
2016-12-24T08:41:39.381Z,54.88
2016-12-24T08:42:20.020Z,55.07
2016-12-24T08:43:00.645Z,54.78
2016-12-24T08:43:41.378Z,54.97
2016-12-24T08:44:22.020Z,54.68
2016-12-24T08:45:02.644Z,55.16
2016-12-24T08:45:43.283Z,55.16
2016-12-24T08:46:23.911Z,54.68
2016-12-24T08:47:04.547Z,55.07
2016-12-24T08:47:45.177Z,55.16